Time;durP1;ratioP1;P1;durP2;ratioP2;P2;SDS_P1;SDS_P2;PMS_P1;PMS_P2;Temp;Humidity;BMP_temperature;BMP_pressure;BME280_temperature;BME280_humidity;BME280_pressure;Samples;Min_cycle;Max_cycle;Signal;HPM_P1;HPM_P2
2021/11/04 00:01:38;;;;;;;165.75;37.13;;;;;;;;;;5047784;28;20098;-78
2021/11/04 00:04:04;;;;;;;87.60;31.48;;;;;;;;;;5040801;28;20073;-77
2021/11/04 00:06:31;;;;;;;147.32;35.90;;;;;;;;;;5029023;28;20131;-77
2021/11/04 00:08:57;;;;;;;156.82;35.95;;;;;;;;;;5047376;28;20080;-77
2021/11/04 00:11:23;;;;;;;202.13;38.53;;;;;;;;;;5046313;28;20578;-78
2021/11/04 00:13:49;;;;;;;117.50;35.25;;;;;;;;;;5046538;28;20061;-78
2021/11/04 00:16:15;;;;;;;133.70;36.90;;;;;;;;;;5010813;28;20049;-78
2021/11/04 00:18:41;;;;;;;121.20;34.75;;;;;;;;;;5010603;28;20053;-77
2021/11/04 00:21:07;;;;;;;164.77;38.28;;;;;;;;;;5027028;28;20043;-78
2021/11/04 00:23:34;;;;;;;141.38;37.35;;;;;;;;;;5048538;28;20067;-78
2021/11/04 00:26:00;;;;;;;142.65;37.95;;;;;;;;;;5031339;28;20438;-78
2021/11/04 00:28:26;;;;;;;86.57;33.53;;;;;;;;;;5028066;28;20091;-80
2021/11/04 00:30:53;;;;;;;69.18;29.98;;;;;;;;;;5032334;28;20041;-79
2021/11/04 00:33:19;;;;;;;94.97;34.17;;;;;;;;;;5043434;28;20122;-78
2021/11/04 00:35:45;;;;;;;97.18;32.90;;;;;;;;;;5025775;28;20032;-79
2021/11/04 00:38:11;;;;;;;66.80;30.38;;;;;;;;;;5043540;28;20056;-77
2021/11/04 00:40:37;;;;;;;95.70;33.67;;;;;;;;;;5042096;28;20052;-77
2021/11/04 00:43:03;;;;;;;101.68;35.22;;;;;;;;;;5029744;28;20070;-78
2021/11/04 00:45:29;;;;;;;82.38;32.65;;;;;;;;;;5029902;28;20049;-80
2021/11/04 00:47:55;;;;;;;82.28;32.95;;;;;;;;;;5046037;28;20040;-78
2021/11/04 00:50:23;;;;;;;84.18;33.33;;;;;;;;;;5030589;28;20102;-79
2021/11/04 00:52:49;;;;;;;72.63;31.45;;;;;;;;;;5040270;28;20071;-78
2021/11/04 00:55:15;;;;;;;94.72;35.17;;;;;;;;;;5030474;28;20044;-79
2021/11/04 00:57:41;;;;;;;100.97;35.35;;;;;;;;;;5047909;28;20068;-78
2021/11/04 01:00:09;;;;;;;94.68;34.00;;;;;;;;;;5042603;28;20124;-78
2021/11/04 01:02:35;;;;;;;74.38;32.55;;;;;;;;;;5041638;28;20041;-78
2021/11/04 01:05:02;;;;;;;84.18;33.90;;;;;;;;;;5038397;28;20049;-79
2021/11/04 01:07:28;;;;;;;101.93;36.13;;;;;;;;;;5047146;28;20037;-81
2021/11/04 01:09:54;;;;;;;83.90;32.80;;;;;;;;;;5049198;28;20033;-80
2021/11/04 01:12:20;;;;;;;71.20;31.88;;;;;;;;;;5029137;28;20415;-80
2021/11/04 01:14:46;;;;;;;105.13;36.15;;;;;;;;;;5048345;28;20191;-80
2021/11/04 01:17:12;;;;;;;69.65;31.25;;;;;;;;;;5039471;28;20486;-81
2021/11/04 01:19:38;;;;;;;130.98;39.25;;;;;;;;;;5010044;28;20041;-79
2021/11/04 01:22:05;;;;;;;119.72;37.38;;;;;;;;;;5018583;28;20468;-79
2021/11/04 01:24:31;;;;;;;85.68;34.78;;;;;;;;;;5032229;28;20036;-79
2021/11/04 01:26:57;;;;;;;102.68;37.13;;;;;;;;;;5041923;28;20052;-78
2021/11/04 01:29:23;;;;;;;121.72;36.38;;;;;;;;;;5042077;28;20040;-79
2021/11/04 01:31:49;;;;;;;97.13;35.40;;;;;;;;;;5044767;28;20045;-79
2021/11/04 01:34:15;;;;;;;102.95;37.88;;;;;;;;;;5039503;28;20140;-79
2021/11/04 01:36:41;;;;;;;154.70;38.70;;;;;;;;;;5045321;28;20375;-78
2021/11/04 01:39:07;;;;;;;67.93;32.28;;;;;;;;;;5029230;28;20059;-79
2021/11/04 01:41:34;;;;;;;146.63;40.03;;;;;;;;;;5030674;28;20106;-78
2021/11/04 01:44:00;;;;;;;106.15;36.65;;;;;;;;;;5047792;28;20041;-78
2021/11/04 01:46:26;;;;;;;85.82;35.47;;;;;;;;;;5036695;28;20041;-78
2021/11/04 01:48:53;;;;;;;196.35;42.85;;;;;;;;;;5043446;28;20040;-78
2021/11/04 01:51:19;;;;;;;145.63;38.95;;;;;;;;;;5039492;28;20078;-78
2021/11/04 01:53:46;;;;;;;189.65;39.45;;;;;;;;;;5042511;28;20367;-78
2021/11/04 01:56:12;;;;;;;107.88;36.92;;;;;;;;;;5046002;28;20048;-78
2021/11/04 01:58:38;;;;;;;132.77;39.13;;;;;;;;;;5037242;28;20539;-79
2021/11/04 02:01:04;;;;;;;132.98;38.38;;;;;;;;;;5011784;28;20128;-79
2021/11/04 02:03:41;;;;;;;160.93;42.67;;;;;;;;;;5046466;28;20076;-79
2021/11/04 02:06:26;;;;;;;121.47;38.72;;;;;;;;;;5060591;28;20053;-79
2021/11/04 02:08:54;;;;;;;253.38;44.38;;;;;;;;;;5040148;28;20471;-79
2021/11/04 02:11:22;;;;;;;170.18;39.58;;;;;;;;;;5038758;28;20048;-79
2021/11/04 02:13:52;;;;;;;234.07;45.20;;;;;;;;;;5028385;28;20103;-78
2021/11/04 02:16:18;;;;;;;213.48;43.05;;;;;;;;;;5044256;28;20371;-78
2021/11/04 02:18:45;;;;;;;95.22;33.08;;;;;;;;;;5042129;28;20048;-79
2021/11/04 02:21:14;;;;;;;111.57;35.47;;;;;;;;;;5029538;28;20094;-79
2021/11/04 02:23:53;;;;;;;128.75;37.33;;;;;;;;;;5028162;28;20049;-77
2021/11/04 02:26:22;;;;;;;181.02;37.38;;;;;;;;;;5038399;28;20041;-78
2021/11/04 02:28:49;;;;;;;88.78;34.55;;;;;;;;;;5043792;28;20037;-78
2021/11/04 02:31:16;;;;;;;109.07;36.13;;;;;;;;;;5037859;28;20124;-78
2021/11/04 02:33:43;;;;;;;147.10;36.88;;;;;;;;;;5028997;28;20032;-78
2021/11/04 02:36:10;;;;;;;140.98;37.05;;;;;;;;;;5043827;28;20426;-78
2021/11/04 02:38:36;;;;;;;121.47;36.38;;;;;;;;;;5048064;28;20047;-78
2021/11/04 02:41:03;;;;;;;166.02;36.75;;;;;;;;;;5046419;28;20048;-79
2021/11/04 02:43:30;;;;;;;159.60;39.72;;;;;;;;;;5023999;28;20071;-79
2021/11/04 02:45:56;;;;;;;124.00;36.72;;;;;;;;;;5028901;28;20084;-78
2021/11/04 02:48:23;;;;;;;247.75;42.53;;;;;;;;;;5026433;28;20052;-79
2021/11/04 02:50:53;;;;;;;211.63;37.85;;;;;;;;;;5044061;28;20045;-78
2021/11/04 02:53:21;;;;;;;131.98;35.67;;;;;;;;;;5050128;28;20098;-78
2021/11/04 02:55:48;;;;;;;227.77;40.28;;;;;;;;;;5025828;28;20080;-78
2021/11/04 02:58:14;;;;;;;205.07;42.83;;;;;;;;;;5047494;28;20129;-79
2021/11/04 03:00:42;;;;;;;334.23;45.65;;;;;;;;;;5034778;28;20045;-79
2021/11/04 03:03:08;;;;;;;236.90;40.70;;;;;;;;;;5046951;28;20703;-78
2021/11/04 03:05:34;;;;;;;221.50;39.33;;;;;;;;;;5029430;28;20140;-78
2021/11/04 03:08:00;;;;;;;97.53;34.42;;;;;;;;;;5048655;28;20077;-79
2021/11/04 03:10:26;;;;;;;104.75;35.25;;;;;;;;;;5031457;28;20439;-78
2021/11/04 03:12:53;;;;;;;185.70;40.28;;;;;;;;;;5041703;28;20044;-79
2021/11/04 03:15:20;;;;;;;300.02;38.75;;;;;;;;;;5050724;28;20045;-78
2021/11/04 03:17:48;;;;;;;120.05;32.78;;;;;;;;;;5044634;28;20041;-78
2021/11/04 03:20:14;;;;;;;150.02;35.70;;;;;;;;;;5028307;28;21064;-78
2021/11/04 03:22:42;;;;;;;127.45;33.08;;;;;;;;;;5046509;28;20105;-78
2021/11/04 03:25:08;;;;;;;180.65;34.05;;;;;;;;;;5035621;28;20137;-78
2021/11/04 03:27:35;;;;;;;243.68;41.80;;;;;;;;;;5049783;28;20052;-78
2021/11/04 03:30:03;;;;;;;218.30;34.55;;;;;;;;;;5049191;28;20530;-79
2021/11/04 03:32:29;;;;;;;224.82;35.15;;;;;;;;;;5048116;28;20130;-78
2021/11/04 03:34:56;;;;;;;258.95;39.20;;;;;;;;;;5045764;28;20041;-77
2021/11/04 03:37:23;;;;;;;238.30;40.90;;;;;;;;;;5032982;28;20360;-78
2021/11/04 03:39:49;;;;;;;427.95;45.30;;;;;;;;;;5033114;28;20074;-78
2021/11/04 03:42:16;;;;;;;439.20;41.92;;;;;;;;;;5033660;28;20060;-78
2021/11/04 03:44:43;;;;;;;180.60;34.25;;;;;;;;;;5046396;28;20052;-77
2021/11/04 03:47:09;;;;;;;156.75;34.08;;;;;;;;;;5050790;28;20080;-77
2021/11/04 03:49:36;;;;;;;276.40;38.70;;;;;;;;;;5046260;28;20044;-78
2021/11/04 03:52:02;;;;;;;237.13;40.95;;;;;;;;;;5048818;28;20091;-78
2021/11/04 03:54:29;;;;;;;341.48;43.10;;;;;;;;;;5033123;28;20047;-78
2021/11/04 03:56:55;;;;;;;250.00;35.72;;;;;;;;;;5046672;28;20033;-78
2021/11/04 03:59:22;;;;;;;310.27;43.95;;;;;;;;;;5030710;28;20044;-77
2021/11/04 04:01:49;;;;;;;306.08;37.45;;;;;;;;;;5034313;28;20041;-78
2021/11/04 04:04:15;;;;;;;287.05;38.88;;;;;;;;;;5048145;28;20064;-77
2021/11/04 04:06:41;;;;;;;232.10;39.55;;;;;;;;;;5030955;28;20048;-77
2021/11/04 04:09:09;;;;;;;299.25;41.58;;;;;;;;;;5040933;28;20455;-78
2021/11/04 04:11:35;;;;;;;160.45;36.47;;;;;;;;;;5049542;28;20123;-77
2021/11/04 04:14:01;;;;;;;237.25;38.45;;;;;;;;;;5031204;28;20044;-78
2021/11/04 04:16:27;;;;;;;148.55;33.92;;;;;;;;;;5032043;28;20072;-78
2021/11/04 04:18:53;;;;;;;310.05;41.65;;;;;;;;;;5046332;28;20052;-77
2021/11/04 04:21:20;;;;;;;251.50;36.45;;;;;;;;;;5031186;28;20048;-76
2021/11/04 04:23:46;;;;;;;272.95;36.28;;;;;;;;;;5047863;28;20116;-79
2021/11/04 04:26:12;;;;;;;156.05;32.28;;;;;;;;;;5032222;28;20029;-78
2021/11/04 04:28:38;;;;;;;75.00;28.85;;;;;;;;;;5032942;28;20115;-79
2021/11/04 04:31:04;;;;;;;299.23;42.90;;;;;;;;;;5043632;28;20049;-79
2021/11/04 04:33:30;;;;;;;231.50;36.03;;;;;;;;;;5047432;28;20467;-79
2021/11/04 04:35:56;;;;;;;250.13;34.65;;;;;;;;;;5049930;28;20506;-78
2021/11/04 04:38:23;;;;;;;235.30;35.83;;;;;;;;;;5011836;28;20479;-78
2021/11/04 04:40:49;;;;;;;159.35;35.47;;;;;;;;;;5047141;28;20033;-79
2021/11/04 04:43:15;;;;;;;208.50;36.40;;;;;;;;;;5046477;28;20134;-78
2021/11/04 04:45:43;;;;;;;149.90;34.72;;;;;;;;;;5044168;28;20028;-79
2021/11/04 04:48:10;;;;;;;242.35;38.40;;;;;;;;;;5048881;28;20044;-79
2021/11/04 04:50:38;;;;;;;300.77;39.08;;;;;;;;;;5025423;28;20386;-78
2021/11/04 04:53:04;;;;;;;248.95;37.53;;;;;;;;;;5044228;28;20483;-78
2021/11/04 04:55:30;;;;;;;249.82;39.08;;;;;;;;;;5049510;28;20471;-79
2021/11/04 04:57:56;;;;;;;87.53;30.30;;;;;;;;;;5015739;28;20387;-78
2021/11/04 05:00:22;;;;;;;144.90;34.70;;;;;;;;;;5026441;28;20052;-77
2021/11/04 05:02:49;;;;;;;84.55;29.38;;;;;;;;;;5043988;28;20087;-77
2021/11/04 05:05:15;;;;;;;90.47;29.98;;;;;;;;;;5043943;28;20582;-78
2021/11/04 05:07:41;;;;;;;95.15;29.25;;;;;;;;;;5048252;28;20459;-78
2021/11/04 05:10:08;;;;;;;162.63;33.30;;;;;;;;;;5048450;28;20040;-78
2021/11/04 05:12:35;;;;;;;163.55;35.00;;;;;;;;;;5040815;28;20033;-79
2021/11/04 05:15:01;;;;;;;191.80;36.22;;;;;;;;;;5043833;28;20502;-78
2021/11/04 05:17:27;;;;;;;168.57;33.70;;;;;;;;;;5044073;28;20045;-78
2021/11/04 05:19:53;;;;;;;173.95;36.20;;;;;;;;;;5046577;28;20037;-78
2021/11/04 05:22:19;;;;;;;152.02;31.98;;;;;;;;;;5047492;28;20408;-78
2021/11/04 05:24:46;;;;;;;166.75;36.13;;;;;;;;;;5038045;28;20049;-80
2021/11/04 05:27:12;;;;;;;100.85;29.58;;;;;;;;;;5044905;28;20055;-79
2021/11/04 05:29:38;;;;;;;148.50;34.10;;;;;;;;;;5030294;28;20040;-79
2021/11/04 05:32:07;;;;;;;177.73;35.63;;;;;;;;;;5024068;28;20049;-79
2021/11/04 05:34:37;;;;;;;136.15;33.97;;;;;;;;;;5017949;28;20537;-77
2021/11/04 05:37:04;;;;;;;113.30;31.35;;;;;;;;;;5028106;28;20155;-81
2021/11/04 05:39:30;;;;;;;93.75;29.80;;;;;;;;;;5047766;28;20068;-79
2021/11/04 05:41:56;;;;;;;63.42;27.90;;;;;;;;;;5023892;28;20033;-79
2021/11/04 05:44:22;;;;;;;71.72;27.35;;;;;;;;;;5030426;28;20192;-79
2021/11/04 05:46:48;;;;;;;83.63;29.67;;;;;;;;;;5044272;28;20041;-79
2021/11/04 05:49:15;;;;;;;107.78;30.38;;;;;;;;;;5046854;28;20098;-79
2021/11/04 05:51:41;;;;;;;90.30;27.35;;;;;;;;;;5038435;28;20037;-78
2021/11/04 05:54:07;;;;;;;87.70;28.58;;;;;;;;;;5044515;28;20537;-79
2021/11/04 05:56:33;;;;;;;88.30;27.75;;;;;;;;;;5028325;28;20541;-79
2021/11/04 05:58:59;;;;;;;66.40;27.23;;;;;;;;;;5028708;28;20479;-79
2021/11/04 06:01:28;;;;;;;72.75;28.20;;;;;;;;;;5041464;28;20052;-84
2021/11/04 06:03:54;;;;;;;139.30;32.67;;;;;;;;;;5029778;28;20056;-80
2021/11/04 06:06:20;;;;;;;119.72;33.05;;;;;;;;;;5023486;28;20114;-86
2021/11/04 06:08:46;;;;;;;84.22;30.00;;;;;;;;;;5052570;28;20052;-82
2021/11/04 06:11:12;;;;;;;182.77;38.15;;;;;;;;;;5013748;28;20127;-82
2021/11/04 06:13:39;;;;;;;91.35;30.52;;;;;;;;;;5044376;28;20564;-81
2021/11/04 06:16:12;;;;;;;61.65;24.52;;;;;;;;;;5028155;28;20045;-79
2021/11/04 06:18:38;;;;;;;58.53;25.20;;;;;;;;;;5028554;28;20558;-79
2021/11/04 06:21:04;;;;;;;54.38;25.08;;;;;;;;;;5027801;28;20045;-78
2021/11/04 06:23:31;;;;;;;52.05;24.27;;;;;;;;;;5051330;28;20055;-79
2021/11/04 06:25:57;;;;;;;55.13;23.63;;;;;;;;;;5053561;28;20049;-78
2021/11/04 06:28:23;;;;;;;46.55;23.42;;;;;;;;;;5028795;28;20052;-78
2021/11/04 06:30:49;;;;;;;45.17;22.27;;;;;;;;;;5028545;28;20128;-78
2021/11/04 06:33:15;;;;;;;51.05;22.38;;;;;;;;;;5048983;28;20056;-76
2021/11/04 06:35:41;;;;;;;41.22;20.90;;;;;;;;;;5043449;28;20049;-75
2021/11/04 06:38:07;;;;;;;37.05;19.98;;;;;;;;;;5033434;28;20048;-80
2021/11/04 06:40:33;;;;;;;34.20;19.67;;;;;;;;;;5033416;28;20048;-80
2021/11/04 06:42:59;;;;;;;38.22;21.25;;;;;;;;;;5033243;28;20088;-79
2021/11/04 06:45:25;;;;;;;43.00;22.13;;;;;;;;;;5047986;28;20506;-79
2021/11/04 06:47:53;;;;;;;40.75;20.92;;;;;;;;;;5040685;28;20126;-80
2021/11/04 06:50:27;;;;;;;40.00;21.42;;;;;;;;;;5046041;28;20480;-80
2021/11/04 06:53:14;;;;;;;35.50;19.58;;;;;;;;;;5028468;28;20052;-80
2021/11/04 06:55:40;;;;;;;40.33;21.63;;;;;;;;;;5043490;28;20061;-80
2021/11/04 06:58:13;;;;;;;38.05;20.08;;;;;;;;;;5039487;28;20107;-80
2021/11/04 07:00:39;;;;;;;48.35;21.70;;;;;;;;;;5050110;28;20044;-79
2021/11/04 07:03:16;;;;;;;50.38;24.10;;;;;;;;;;5033127;28;20048;-80
2021/11/04 07:05:46;;;;;;;53.92;24.23;;;;;;;;;;5050130;28;20075;-80
2021/11/04 07:08:20;;;;;;;63.47;25.13;;;;;;;;;;5051479;28;20055;-80
2021/11/04 07:10:47;;;;;;;56.45;25.65;;;;;;;;;;5047845;28;20131;-78
2021/11/04 07:13:16;;;;;;;57.03;24.88;;;;;;;;;;5028584;28;20049;-78
2021/11/04 07:15:43;;;;;;;68.00;26.67;;;;;;;;;;5043723;28;20583;-80
2021/11/04 07:18:14;;;;;;;65.65;26.00;;;;;;;;;;5037412;28;20033;-76
2021/11/04 07:20:41;;;;;;;52.47;25.40;;;;;;;;;;5044336;28;20060;-77
2021/11/04 07:23:11;;;;;;;57.33;25.23;;;;;;;;;;5046288;28;20049;-77
2021/11/04 07:25:38;;;;;;;51.03;25.50;;;;;;;;;;5028436;28;20053;-76
2021/11/04 07:28:04;;;;;;;52.30;25.23;;;;;;;;;;5042948;28;20056;-77
2021/11/04 07:30:30;;;;;;;53.55;24.90;;;;;;;;;;5028015;28;20045;-79
2021/11/04 07:33:04;;;;;;;49.42;23.85;;;;;;;;;;5044187;28;20057;-79
2021/11/04 07:35:31;;;;;;;46.63;23.48;;;;;;;;;;5047816;28;20056;-78
2021/11/04 07:37:57;;;;;;;49.92;24.85;;;;;;;;;;5050335;28;20045;-77
2021/11/04 07:40:25;;;;;;;49.53;22.38;;;;;;;;;;5046812;28;20052;-78
2021/11/04 07:42:52;;;;;;;43.67;22.35;;;;;;;;;;5049677;28;20053;-78
2021/11/04 07:45:19;;;;;;;49.70;23.90;;;;;;;;;;5052318;28;20116;-80
2021/11/04 07:47:46;;;;;;;42.50;23.10;;;;;;;;;;5040600;28;20792;-79
2021/11/04 07:50:15;;;;;;;39.38;21.80;;;;;;;;;;5042163;28;20579;-79
2021/11/04 07:52:41;;;;;;;41.35;22.60;;;;;;;;;;5059623;28;20167;-79
2021/11/04 07:55:07;;;;;;;37.13;21.77;;;;;;;;;;5027831;28;20053;-78
2021/11/04 07:57:36;;;;;;;39.88;22.17;;;;;;;;;;5043252;28;20033;-79
2021/11/04 08:00:04;;;;;;;37.85;20.48;;;;;;;;;;5046105;28;20126;-79
2021/11/04 08:02:30;;;;;;;32.88;19.60;;;;;;;;;;5045494;28;20053;-79
2021/11/04 08:04:57;;;;;;;34.72;20.25;;;;;;;;;;5008215;28;20069;-80
2021/11/04 08:07:23;;;;;;;32.42;19.73;;;;;;;;;;5048464;28;20072;-80
2021/11/04 08:09:49;;;;;;;32.63;19.98;;;;;;;;;;5026872;28;20044;-78
2021/11/04 08:12:15;;;;;;;36.63;21.42;;;;;;;;;;5022565;28;20049;-80
2021/11/04 08:14:42;;;;;;;32.20;20.52;;;;;;;;;;5039871;28;20044;-80
2021/11/04 08:17:08;;;;;;;29.42;19.45;;;;;;;;;;5037575;28;20084;-78
2021/11/04 08:19:35;;;;;;;29.58;19.75;;;;;;;;;;5040279;28;20845;-82
2021/11/04 08:22:01;;;;;;;36.72;20.95;;;;;;;;;;5043552;28;20052;-79
2021/11/04 08:24:27;;;;;;;31.17;19.52;;;;;;;;;;5043825;28;20041;-79
2021/11/04 08:26:53;;;;;;;33.60;19.80;;;;;;;;;;5048509;28;20053;-80
2021/11/04 08:29:19;;;;;;;33.20;22.02;;;;;;;;;;5042167;28;20053;-80
2021/11/04 08:31:45;;;;;;;33.53;20.55;;;;;;;;;;5042301;28;20132;-78
2021/11/04 08:34:12;;;;;;;39.83;21.45;;;;;;;;;;5033014;28;20088;-79
2021/11/04 08:36:38;;;;;;;35.10;20.23;;;;;;;;;;5048602;28;20404;-81
2021/11/04 08:39:04;;;;;;;36.67;20.67;;;;;;;;;;5031595;28;20052;-82
2021/11/04 08:41:30;;;;;;;30.55;19.02;;;;;;;;;;5028008;28;20399;-81
2021/11/04 08:43:56;;;;;;;35.80;21.13;;;;;;;;;;5005595;28;20044;-76
2021/11/04 08:46:23;;;;;;;46.28;21.63;;;;;;;;;;5026655;28;20502;-82
2021/11/04 08:48:49;;;;;;;37.90;20.92;;;;;;;;;;5040646;28;20123;-82
2021/11/04 08:51:15;;;;;;;47.55;22.60;;;;;;;;;;5040234;28;20041;-81
2021/11/04 08:53:42;;;;;;;43.70;21.75;;;;;;;;;;5029015;28;20044;-80
2021/11/04 08:56:08;;;;;;;49.90;21.75;;;;;;;;;;5011624;28;20041;-81
2021/11/04 08:58:34;;;;;;;50.97;20.85;;;;;;;;;;5027858;28;20067;-81
2021/11/04 09:01:01;;;;;;;50.15;20.58;;;;;;;;;;5046534;28;20045;-81
2021/11/04 09:03:27;;;;;;;61.65;20.88;;;;;;;;;;5031259;28;20103;-80
2021/11/04 09:05:54;;;;;;;44.67;19.83;;;;;;;;;;5031018;28;20072;-80
2021/11/04 09:08:20;;;;;;;96.85;19.17;;;;;;;;;;5025262;28;20061;-80
2021/11/04 09:10:46;;;;;;;58.55;19.10;;;;;;;;;;5024801;28;20052;-80
2021/11/04 09:13:12;;;;;;;35.25;19.10;;;;;;;;;;5040098;28;20083;-78
2021/11/04 09:15:39;;;;;;;70.47;22.27;;;;;;;;;;5039557;28;20552;-78
2021/11/04 09:18:06;;;;;;;51.28;21.30;;;;;;;;;;5030000;28;20511;-78
2021/11/04 09:20:32;;;;;;;70.28;22.58;;;;;;;;;;5040749;28;20045;-77
2021/11/04 09:22:58;;;;;;;103.57;20.92;;;;;;;;;;5027285;28;20501;-78
2021/11/04 09:25:25;;;;;;;60.92;20.30;;;;;;;;;;5021842;28;20139;-77
2021/11/04 09:27:52;;;;;;;134.38;19.73;;;;;;;;;;5040767;28;20170;-78
2021/11/04 09:30:18;;;;;;;34.10;18.40;;;;;;;;;;5044121;28;20075;-78
2021/11/04 09:32:45;;;;;;;47.10;17.80;;;;;;;;;;5025464;28;20131;-78
2021/11/04 09:35:13;;;;;;;41.35;18.55;;;;;;;;;;5042784;28;20128;-77
2021/11/04 09:37:39;;;;;;;65.60;19.92;;;;;;;;;;5049776;28;20080;-78
2021/11/04 09:40:06;;;;;;;72.95;21.75;;;;;;;;;;5049129;28;20067;-78
2021/11/04 09:42:32;;;;;;;73.72;21.85;;;;;;;;;;5042583;28;20045;-78
2021/11/04 09:44:58;;;;;;;99.63;26.85;;;;;;;;;;5040909;28;20483;-79
2021/11/04 09:47:26;;;;;;;66.28;21.42;;;;;;;;;;5040749;28;20045;-78
2021/11/04 09:49:56;;;;;;;71.93;23.80;;;;;;;;;;5045523;28;20559;-79
2021/11/04 09:52:30;;;;;;;114.82;24.83;;;;;;;;;;5039491;28;20139;-79
2021/11/04 09:54:56;;;;;;;108.10;25.30;;;;;;;;;;5024856;28;20048;-79
2021/11/04 09:57:23;;;;;;;70.57;25.17;;;;;;;;;;5041775;28;20072;-79
2021/11/04 09:59:49;;;;;;;46.35;22.50;;;;;;;;;;5048070;28;20048;-78
2021/11/04 10:02:17;;;;;;;51.83;20.98;;;;;;;;;;5044228;28;20044;-79
2021/11/04 10:04:45;;;;;;;37.88;19.75;;;;;;;;;;5040098;28;20083;-72
2021/11/04 10:07:12;;;;;;;37.22;18.38;;;;;;;;;;5048006;28;20057;-76
2021/11/04 10:09:39;;;;;;;34.20;18.58;;;;;;;;;;5029861;28;20053;-76
2021/11/04 10:12:12;;;;;;;625.15;326.40;;;;;;;;;;5045604;28;20075;-77
2021/11/04 10:14:38;;;;;;;24.13;14.77;;;;;;;;;;5045110;28;20063;-83
2021/11/04 10:17:04;;;;;;;28.50;15.38;;;;;;;;;;5038542;28;20056;-76
2021/11/04 10:19:43;;;;;;;37.88;16.85;;;;;;;;;;5044665;28;20040;-82
2021/11/04 10:22:10;;;;;;;30.80;16.95;;;;;;;;;;5044495;28;20056;-81
2021/11/04 10:24:46;;;;;;;25.38;15.30;;;;;;;;;;5050765;28;20052;-80
2021/11/04 10:27:27;;;;;;;26.33;15.57;;;;;;;;;;5043529;28;20048;-80
2021/11/04 10:29:53;;;;;;;26.20;17.40;;;;;;;;;;5030082;28;20044;-83
2021/11/04 10:32:30;;;;;;;29.67;18.10;;;;;;;;;;5039747;28;20077;-79
2021/11/04 10:35:04;;;;;;;26.40;17.15;;;;;;;;;;5051349;28;20037;-80
2021/11/04 10:37:30;;;;;;;26.98;17.35;;;;;;;;;;5044736;28;20479;-81
2021/11/04 10:40:06;;;;;;;29.30;18.50;;;;;;;;;;5013050;28;20053;-81
2021/11/04 10:42:48;;;;;;;28.50;19.15;;;;;;;;;;5047003;28;20091;-82
2021/11/04 10:45:17;;;;;;;27.85;18.13;;;;;;;;;;5046137;28;20048;-84
2021/11/04 10:47:44;;;;;;;30.98;20.17;;;;;;;;;;5047148;28;20048;-84
2021/11/04 10:50:10;;;;;;;30.58;20.38;;;;;;;;;;5023975;28;20068;-81
2021/11/04 10:52:36;;;;;;;30.77;20.45;;;;;;;;;;5047152;28;20049;-83
2021/11/04 10:55:08;;;;;;;27.42;18.85;;;;;;;;;;5045274;28;20049;-84
2021/11/04 10:57:34;;;;;;;32.55;20.23;;;;;;;;;;5031061;28;20044;-84
2021/11/04 11:00:19;;;;;;;30.13;21.05;;;;;;;;;;5046284;28;20365;-81
2021/11/04 11:03:09;;;;;;;30.52;21.50;;;;;;;;;;5036423;28;20095;-84
2021/11/04 11:05:36;;;;;;;32.30;21.50;;;;;;;;;;5022197;28;20044;-81
2021/11/04 11:08:04;;;;;;;32.47;22.30;;;;;;;;;;5041704;28;20487;-85
2021/11/04 11:10:31;;;;;;;31.88;21.48;;;;;;;;;;5036153;28;20459;-80
2021/11/04 11:12:57;;;;;;;33.42;22.02;;;;;;;;;;5032358;28;20099;-82
2021/11/04 11:15:23;;;;;;;27.55;19.55;;;;;;;;;;5052361;28;20048;-85
2021/11/04 11:17:50;;;;;;;29.65;19.52;;;;;;;;;;5033609;28;20835;-86
2021/11/04 11:20:19;;;;;;;26.27;19.13;;;;;;;;;;5033719;28;20063;-86
2021/11/04 11:22:45;;;;;;;29.00;20.83;;;;;;;;;;5042988;28;20048;-82
2021/11/04 11:25:12;;;;;;;26.08;19.55;;;;;;;;;;5046586;28;20044;-88
2021/11/04 11:27:38;;;;;;;24.13;17.75;;;;;;;;;;5031773;28;20063;-83
2021/11/04 11:30:11;;;;;;;24.45;17.83;;;;;;;;;;5042975;28;20128;-80
2021/11/04 11:32:37;;;;;;;26.42;18.30;;;;;;;;;;5026426;28;20041;-82
2021/11/04 11:35:22;;;;;;;25.58;17.25;;;;;;;;;;5054303;28;20071;-81
2021/11/04 11:38:07;;;;;;;23.27;16.73;;;;;;;;;;5041885;28;20053;-81
2021/11/04 11:40:33;;;;;;;25.50;18.02;;;;;;;;;;5026878;28;20057;-84
2021/11/04 11:43:09;;;;;;;26.92;16.98;;;;;;;;;;5049683;28;20119;-87
2021/11/04 11:45:36;;;;;;;22.58;16.85;;;;;;;;;;5029216;28;20118;-86
2021/11/04 11:48:16;;;;;;;21.80;15.90;;;;;;;;;;5042282;28;20041;-84
2021/11/04 11:50:43;;;;;;;20.08;14.52;;;;;;;;;;5040710;28;20162;-89
2021/11/04 11:53:20;;;;;;;23.27;17.15;;;;;;;;;;5043538;28;20045;-84
2021/11/04 11:55:47;;;;;;;27.60;18.58;;;;;;;;;;5066747;28;20049;-80
2021/11/04 11:58:15;;;;;;;23.80;17.85;;;;;;;;;;5040057;28;20128;-85
2021/11/04 12:00:50;;;;;;;26.00;17.27;;;;;;;;;;5044629;28;20075;-86
2021/11/04 12:03:38;;;;;;;26.73;17.05;;;;;;;;;;5040571;28;20075;-83
2021/11/04 12:06:04;;;;;;;24.17;16.92;;;;;;;;;;5025371;28;20423;-86
2021/11/04 12:08:31;;;;;;;22.13;16.00;;;;;;;;;;5029264;28;20044;-83
2021/11/04 12:10:58;;;;;;;25.42;17.83;;;;;;;;;;5025771;28;20063;-82
2021/11/04 12:13:36;;;;;;;25.30;18.35;;;;;;;;;;5009093;28;20045;-85
2021/11/04 12:16:06;;;;;;;22.45;16.27;;;;;;;;;;5043092;28;20041;-85
2021/11/04 12:18:32;;;;;;;24.08;16.45;;;;;;;;;;5045685;28;20051;-77
2021/11/04 12:20:58;;;;;;;23.70;16.05;;;;;;;;;;5040269;28;20135;-83
2021/11/04 12:23:34;;;;;;;22.80;16.05;;;;;;;;;;5044290;28;20490;-78
2021/11/04 12:26:00;;;;;;;21.58;16.23;;;;;;;;;;5039139;28;20548;-81
2021/11/04 12:28:26;;;;;;;21.75;15.85;;;;;;;;;;5031934;28;20059;-81
2021/11/04 12:30:53;;;;;;;22.85;14.40;;;;;;;;;;5049545;28;20403;-82
2021/11/04 12:33:19;;;;;;;19.52;15.38;;;;;;;;;;5033656;28;20056;-83
2021/11/04 12:35:57;;;;;;;17.45;14.38;;;;;;;;;;5026537;28;20130;-84
2021/11/04 12:38:30;;;;;;;17.85;14.63;;;;;;;;;;5049386;28;20053;-84
2021/11/04 12:41:06;;;;;;;17.92;13.05;;;;;;;;;;5054306;28;20369;-83
2021/11/04 12:43:32;;;;;;;17.38;13.98;;;;;;;;;;5030380;28;20079;-81
2021/11/04 12:46:12;;;;;;;17.65;12.35;;;;;;;;;;5049385;28;20045;-85
2021/11/04 12:48:47;;;;;;;57.45;51.22;;;;;;;;;;5048048;28;20079;-83
2021/11/04 12:51:14;;;;;;;21.23;14.35;;;;;;;;;;5045552;28;20060;-83
2021/11/04 12:53:53;;;;;;;17.35;13.60;;;;;;;;;;5026441;28;20044;-83
2021/11/04 12:56:19;;;;;;;19.35;13.27;;;;;;;;;;5023953;28;20056;-84
2021/11/04 12:58:51;;;;;;;18.88;14.18;;;;;;;;;;5024719;28;20048;-76
2021/11/04 13:01:17;;;;;;;18.63;14.10;;;;;;;;;;5046037;28;20049;-81
2021/11/04 13:03:43;;;;;;;17.30;13.90;;;;;;;;;;5023770;28;20377;-80
2021/11/04 13:06:09;;;;;;;19.75;14.43;;;;;;;;;;5024810;28;20059;-81
2021/11/04 13:08:36;;;;;;;20.63;13.43;;;;;;;;;;5028239;28;20037;-80
2021/11/04 13:11:11;;;;;;;19.17;14.15;;;;;;;;;;5048719;28;20368;-81
2021/11/04 13:13:50;;;;;;;19.65;14.18;;;;;;;;;;5029962;28;20368;-81
2021/11/04 13:16:20;;;;;;;18.80;13.95;;;;;;;;;;5026403;28;20051;-80
2021/11/04 13:18:46;;;;;;;17.05;13.65;;;;;;;;;;5043355;28;20044;-80
2021/11/04 13:21:19;;;;;;;20.15;14.57;;;;;;;;;;5041286;28;20040;-84
2021/11/04 13:23:46;;;;;;;19.02;13.68;;;;;;;;;;5029382;28;20055;-81
2021/11/04 13:26:12;;;;;;;18.27;13.73;;;;;;;;;;5050666;28;20602;-76
2021/11/04 13:28:40;;;;;;;17.20;13.13;;;;;;;;;;5047395;28;20056;-77
2021/11/04 13:31:10;;;;;;;16.25;12.48;;;;;;;;;;5026392;28;20138;-82
2021/11/04 13:33:44;;;;;;;21.33;13.82;;;;;;;;;;5031630;28;20080;-82
2021/11/04 13:36:12;;;;;;;17.88;12.70;;;;;;;;;;5046337;28;20135;-82
2021/11/04 13:38:48;;;;;;;19.65;13.57;;;;;;;;;;5047696;28;20475;-82
2021/11/04 13:41:14;;;;;;;16.88;13.35;;;;;;;;;;5032204;28;20048;-80
2021/11/04 13:43:47;;;;;;;19.08;14.48;;;;;;;;;;5014626;28;20131;-82
2021/11/04 13:46:17;;;;;;;23.42;14.68;;;;;;;;;;5016233;28;20141;-82
2021/11/04 13:48:52;;;;;;;21.23;14.73;;;;;;;;;;5044040;28;20048;-81
2021/11/04 13:51:30;;;;;;;17.67;13.18;;;;;;;;;;5030395;28;20044;-82
2021/11/04 13:54:06;;;;;;;17.85;13.20;;;;;;;;;;5043751;28;20049;-82
2021/11/04 13:56:32;;;;;;;16.52;13.73;;;;;;;;;;5044708;28;20049;-84
2021/11/04 13:58:59;;;;;;;18.70;12.95;;;;;;;;;;5021948;28;20073;-81
2021/11/04 14:01:25;;;;;;;19.48;14.20;;;;;;;;;;5008294;28;20099;-78
2021/11/04 14:04:13;;;;;;;21.98;13.77;;;;;;;;;;5012896;28;20506;-86
2021/11/04 14:06:44;;;;;;;19.17;13.73;;;;;;;;;;5046672;28;20063;-83
2021/11/04 14:09:11;;;;;;;19.10;13.15;;;;;;;;;;5022876;28;20037;-84
2021/11/04 14:11:37;;;;;;;17.05;12.35;;;;;;;;;;5040353;28;20044;-86
2021/11/04 14:14:08;;;;;;;15.07;12.55;;;;;;;;;;5012521;28;20041;-86
2021/11/04 14:16:35;;;;;;;17.15;13.02;;;;;;;;;;5030045;28;20051;-86
2021/11/04 14:19:03;;;;;;;15.23;12.18;;;;;;;;;;5043437;28;20053;-84